sensor_id;sensor_type;location;lat;lon;timestamp;P1;durP1;ratioP1;P2;durP2;ratioP2
9222;SDS011;7557;51.698;3.942;2022-09-09T00:02:17;16.58;;;10.73;;
9222;SDS011;7557;51.698;3.942;2022-09-09T00:04:48;13.15;;;9.18;;
9222;SDS011;7557;51.698;3.942;2022-09-09T00:07:27;13.60;;;8.85;;
9222;SDS011;7557;51.698;3.942;2022-09-09T00:10:09;8.63;;;7.18;;
9222;SDS011;7557;51.698;3.942;2022-09-09T00:12:47;13.40;;;7.10;;
9222;SDS011;7557;51.698;3.942;2022-09-09T00:15:22;9.02;;;7.03;;
9222;SDS011;7557;51.698;3.942;2022-09-09T00:17:56;6.28;;;5.72;;
9222;SDS011;7557;51.698;3.942;2022-09-09T00:20:30;8.63;;;6.50;;
9222;SDS011;7557;51.698;3.942;2022-09-09T00:23:03;9.45;;;6.40;;
9222;SDS011;7557;51.698;3.942;2022-09-09T00:25:40;7.82;;;6.85;;
9222;SDS011;7557;51.698;3.942;2022-09-09T00:28:13;12.18;;;7.50;;
9222;SDS011;7557;51.698;3.942;2022-09-09T00:30:44;8.10;;;7.30;;
9222;SDS011;7557;51.698;3.942;2022-09-09T00:33:16;11.20;;;7.97;;
9222;SDS011;7557;51.698;3.942;2022-09-09T00:35:48;12.80;;;7.60;;
9222;SDS011;7557;51.698;3.942;2022-09-09T00:38:18;9.80;;;7.32;;
9222;SDS011;7557;51.698;3.942;2022-09-09T00:40:49;11.85;;;7.10;;
9222;SDS011;7557;51.698;3.942;2022-09-09T00:43:24;10.88;;;7.15;;
9222;SDS011;7557;51.698;3.942;2022-09-09T00:49:13;7.43;;;6.28;;
9222;SDS011;7557;51.698;3.942;2022-09-09T00:51:49;11.48;;;6.25;;
9222;SDS011;7557;51.698;3.942;2022-09-09T00:54:28;7.22;;;6.50;;
9222;SDS011;7557;51.698;3.942;2022-09-09T00:57:11;11.07;;;6.72;;
9222;SDS011;7557;51.698;3.942;2022-09-09T00:59:46;8.65;;;6.32;;
9222;SDS011;7557;51.698;3.942;2022-09-09T01:02:21;9.50;;;6.85;;
9222;SDS011;7557;51.698;3.942;2022-09-09T01:04:58;10.02;;;6.75;;
9222;SDS011;7557;51.698;3.942;2022-09-09T01:07:31;6.85;;;6.10;;
9222;SDS011;7557;51.698;3.942;2022-09-09T01:09:58;6.80;;;5.53;;
9222;SDS011;7557;51.698;3.942;2022-09-09T01:12:32;7.97;;;5.32;;
9222;SDS011;7557;51.698;3.942;2022-09-09T01:15:10;8.07;;;5.93;;
9222;SDS011;7557;51.698;3.942;2022-09-09T01:17:46;6.15;;;5.63;;
9222;SDS011;7557;51.698;3.942;2022-09-09T01:20:20;8.82;;;5.43;;
9222;SDS011;7557;51.698;3.942;2022-09-09T01:23:00;7.53;;;4.43;;
9222;SDS011;7557;51.698;3.942;2022-09-09T01:26:02;6.85;;;4.93;;
9222;SDS011;7557;51.698;3.942;2022-09-09T01:28:40;6.15;;;4.85;;
9222;SDS011;7557;51.698;3.942;2022-09-09T01:31:10;5.15;;;4.65;;
9222;SDS011;7557;51.698;3.942;2022-09-09T01:33:41;7.05;;;4.82;;
9222;SDS011;7557;51.698;3.942;2022-09-09T01:36:09;6.95;;;4.75;;
9222;SDS011;7557;51.698;3.942;2022-09-09T01:38:38;6.32;;;5.50;;
9222;SDS011;7557;51.698;3.942;2022-09-09T01:41:08;7.15;;;5.07;;
9222;SDS011;7557;51.698;3.942;2022-09-09T01:43:35;8.15;;;5.03;;
9222;SDS011;7557;51.698;3.942;2022-09-09T01:46:04;8.50;;;5.05;;
9222;SDS011;7557;51.698;3.942;2022-09-09T01:48:31;5.32;;;4.85;;
9222;SDS011;7557;51.698;3.942;2022-09-09T01:50:59;8.95;;;4.68;;
9222;SDS011;7557;51.698;3.942;2022-09-09T01:53:26;7.40;;;4.60;;
9222;SDS011;7557;51.698;3.942;2022-09-09T01:56:00;6.43;;;4.57;;
9222;SDS011;7557;51.698;3.942;2022-09-09T01:58:37;7.50;;;4.10;;
9222;SDS011;7557;51.698;3.942;2022-09-09T02:01:15;4.82;;;3.88;;
9222;SDS011;7557;51.698;3.942;2022-09-09T02:03:51;4.43;;;3.75;;
9222;SDS011;7557;51.698;3.942;2022-09-09T02:06:25;7.80;;;4.38;;
9222;SDS011;7557;51.698;3.942;2022-09-09T02:08:55;8.65;;;4.22;;
9222;SDS011;7557;51.698;3.942;2022-09-09T02:11:25;8.05;;;4.07;;
9222;SDS011;7557;51.698;3.942;2022-09-09T02:13:56;4.88;;;3.67;;
9222;SDS011;7557;51.698;3.942;2022-09-09T02:16:28;5.75;;;3.40;;
9222;SDS011;7557;51.698;3.942;2022-09-09T02:19:01;7.70;;;4.25;;
9222;SDS011;7557;51.698;3.942;2022-09-09T02:21:34;5.55;;;3.60;;
9222;SDS011;7557;51.698;3.942;2022-09-09T02:24:03;5.82;;;3.70;;
9222;SDS011;7557;51.698;3.942;2022-09-09T02:26:35;6.72;;;4.05;;
9222;SDS011;7557;51.698;3.942;2022-09-09T02:29:08;5.32;;;4.10;;
9222;SDS011;7557;51.698;3.942;2022-09-09T02:31:40;7.07;;;4.35;;
9222;SDS011;7557;51.698;3.942;2022-09-09T02:34:09;10.27;;;3.97;;
9222;SDS011;7557;51.698;3.942;2022-09-09T02:36:38;6.00;;;3.90;;
9222;SDS011;7557;51.698;3.942;2022-09-09T02:39:08;6.80;;;3.55;;
9222;SDS011;7557;51.698;3.942;2022-09-09T02:41:38;5.53;;;3.55;;
9222;SDS011;7557;51.698;3.942;2022-09-09T02:44:10;5.38;;;3.97;;
9222;SDS011;7557;51.698;3.942;2022-09-09T02:46:43;4.60;;;3.40;;
9222;SDS011;7557;51.698;3.942;2022-09-09T02:49:28;4.93;;;3.55;;
9222;SDS011;7557;51.698;3.942;2022-09-09T02:52:04;3.95;;;3.45;;
9222;SDS011;7557;51.698;3.942;2022-09-09T02:54:34;4.95;;;2.97;;
9222;SDS011;7557;51.698;3.942;2022-09-09T02:57:05;7.32;;;3.30;;
9222;SDS011;7557;51.698;3.942;2022-09-09T02:59:38;5.05;;;3.35;;
9222;SDS011;7557;51.698;3.942;2022-09-09T03:02:06;4.88;;;3.80;;
9222;SDS011;7557;51.698;3.942;2022-09-09T03:04:35;3.92;;;3.63;;
9222;SDS011;7557;51.698;3.942;2022-09-09T03:07:02;6.05;;;3.22;;
9222;SDS011;7557;51.698;3.942;2022-09-09T03:09:30;5.93;;;3.95;;
9222;SDS011;7557;51.698;3.942;2022-09-09T03:11:58;6.82;;;3.80;;
9222;SDS011;7557;51.698;3.942;2022-09-09T03:14:26;8.88;;;3.92;;
9222;SDS011;7557;51.698;3.942;2022-09-09T03:16:54;4.32;;;3.22;;
9222;SDS011;7557;51.698;3.942;2022-09-09T03:19:23;5.95;;;3.78;;
9222;SDS011;7557;51.698;3.942;2022-09-09T03:21:51;7.35;;;3.97;;
9222;SDS011;7557;51.698;3.942;2022-09-09T03:24:18;5.30;;;3.58;;
9222;SDS011;7557;51.698;3.942;2022-09-09T03:26:46;5.30;;;3.13;;
9222;SDS011;7557;51.698;3.942;2022-09-09T03:29:13;6.00;;;3.22;;
9222;SDS011;7557;51.698;3.942;2022-09-09T03:31:41;5.43;;;3.40;;
9222;SDS011;7557;51.698;3.942;2022-09-09T03:34:12;4.03;;;3.20;;
9222;SDS011;7557;51.698;3.942;2022-09-09T03:36:39;5.85;;;3.75;;
9222;SDS011;7557;51.698;3.942;2022-09-09T03:39:07;7.63;;;3.40;;
9222;SDS011;7557;51.698;3.942;2022-09-09T03:41:34;11.13;;;3.85;;
9222;SDS011;7557;51.698;3.942;2022-09-09T03:44:02;5.53;;;3.92;;
9222;SDS011;7557;51.698;3.942;2022-09-09T03:46:29;6.90;;;3.53;;
9222;SDS011;7557;51.698;3.942;2022-09-09T03:48:57;7.50;;;3.60;;
9222;SDS011;7557;51.698;3.942;2022-09-09T03:51:28;6.32;;;3.60;;
9222;SDS011;7557;51.698;3.942;2022-09-09T03:53:56;6.15;;;3.40;;
9222;SDS011;7557;51.698;3.942;2022-09-09T03:56:24;5.18;;;3.80;;
9222;SDS011;7557;51.698;3.942;2022-09-09T03:58:51;4.25;;;3.00;;
9222;SDS011;7557;51.698;3.942;2022-09-09T04:01:19;6.45;;;3.30;;
9222;SDS011;7557;51.698;3.942;2022-09-09T04:03:46;4.82;;;2.78;;
9222;SDS011;7557;51.698;3.942;2022-09-09T04:06:14;4.85;;;3.05;;
9222;SDS011;7557;51.698;3.942;2022-09-09T04:08:43;6.10;;;3.40;;
9222;SDS011;7557;51.698;3.942;2022-09-09T04:11:13;8.75;;;3.47;;
9222;SDS011;7557;51.698;3.942;2022-09-09T04:13:41;8.65;;;3.08;;
9222;SDS011;7557;51.698;3.942;2022-09-09T04:16:10;3.78;;;2.47;;
9222;SDS011;7557;51.698;3.942;2022-09-09T04:18:38;6.13;;;2.95;;
9222;SDS011;7557;51.698;3.942;2022-09-09T04:21:05;4.82;;;2.55;;
9222;SDS011;7557;51.698;3.942;2022-09-09T04:23:33;6.43;;;2.70;;
9222;SDS011;7557;51.698;3.942;2022-09-09T04:26:02;7.00;;;2.58;;
9222;SDS011;7557;51.698;3.942;2022-09-09T04:28:31;4.75;;;2.60;;
9222;SDS011;7557;51.698;3.942;2022-09-09T04:31:03;6.30;;;2.60;;
9222;SDS011;7557;51.698;3.942;2022-09-09T04:33:32;5.13;;;3.25;;
9222;SDS011;7557;51.698;3.942;2022-09-09T04:36:00;7.07;;;2.70;;
9222;SDS011;7557;51.698;3.942;2022-09-09T04:38:28;2.80;;;2.38;;
9222;SDS011;7557;51.698;3.942;2022-09-09T04:40:56;7.22;;;2.65;;
9222;SDS011;7557;51.698;3.942;2022-09-09T04:43:25;6.18;;;2.85;;
9222;SDS011;7557;51.698;3.942;2022-09-09T04:45:52;8.60;;;3.15;;
9222;SDS011;7557;51.698;3.942;2022-09-09T04:48:20;7.70;;;2.97;;
9222;SDS011;7557;51.698;3.942;2022-09-09T04:50:56;7.43;;;2.72;;
9222;SDS011;7557;51.698;3.942;2022-09-09T04:53:24;7.53;;;2.88;;
9222;SDS011;7557;51.698;3.942;2022-09-09T04:55:52;5.38;;;2.70;;
9222;SDS011;7557;51.698;3.942;2022-09-09T04:58:29;6.80;;;2.60;;
9222;SDS011;7557;51.698;3.942;2022-09-09T05:01:02;10.32;;;3.28;;
9222;SDS011;7557;51.698;3.942;2022-09-09T05:03:31;9.40;;;2.75;;
9222;SDS011;7557;51.698;3.942;2022-09-09T05:06:02;7.93;;;2.90;;
9222;SDS011;7557;51.698;3.942;2022-09-09T05:08:31;8.18;;;2.92;;
9222;SDS011;7557;51.698;3.942;2022-09-09T05:10:58;8.18;;;3.25;;
9222;SDS011;7557;51.698;3.942;2022-09-09T05:13:26;6.30;;;2.67;;
9222;SDS011;7557;51.698;3.942;2022-09-09T05:15:55;4.68;;;2.35;;
9222;SDS011;7557;51.698;3.942;2022-09-09T05:18:23;4.30;;;2.50;;
9222;SDS011;7557;51.698;3.942;2022-09-09T05:20:50;7.07;;;2.85;;
9222;SDS011;7557;51.698;3.942;2022-09-09T05:23:18;7.93;;;2.83;;
9222;SDS011;7557;51.698;3.942;2022-09-09T05:25:53;6.75;;;2.47;;
9222;SDS011;7557;51.698;3.942;2022-09-09T05:28:24;9.80;;;3.08;;
9222;SDS011;7557;51.698;3.942;2022-09-09T05:30:57;7.38;;;2.58;;
9222;SDS011;7557;51.698;3.942;2022-09-09T05:33:25;12.40;;;2.67;;
9222;SDS011;7557;51.698;3.942;2022-09-09T05:35:57;9.00;;;2.60;;
9222;SDS011;7557;51.698;3.942;2022-09-09T05:38:25;4.93;;;2.47;;
9222;SDS011;7557;51.698;3.942;2022-09-09T05:40:52;8.07;;;2.63;;
9222;SDS011;7557;51.698;3.942;2022-09-09T05:43:21;8.60;;;2.63;;
9222;SDS011;7557;51.698;3.942;2022-09-09T05:45:58;6.43;;;2.67;;
9222;SDS011;7557;51.698;3.942;2022-09-09T05:48:28;7.05;;;3.65;;
9222;SDS011;7557;51.698;3.942;2022-09-09T05:50:57;8.95;;;2.42;;
9222;SDS011;7557;51.698;3.942;2022-09-09T05:53:25;5.82;;;2.17;;
9222;SDS011;7557;51.698;3.942;2022-09-09T05:56:00;8.05;;;2.47;;
9222;SDS011;7557;51.698;3.942;2022-09-09T05:58:29;7.05;;;2.80;;
9222;SDS011;7557;51.698;3.942;2022-09-09T06:01:02;7.15;;;2.33;;
9222;SDS011;7557;51.698;3.942;2022-09-09T06:03:31;7.32;;;2.75;;
9222;SDS011;7557;51.698;3.942;2022-09-09T06:05:59;10.48;;;3.05;;
9222;SDS011;7557;51.698;3.942;2022-09-09T06:08:30;6.93;;;3.30;;
9222;SDS011;7557;51.698;3.942;2022-09-09T06:11:00;9.13;;;3.10;;
9222;SDS011;7557;51.698;3.942;2022-09-09T06:13:29;5.72;;;2.75;;
9222;SDS011;7557;51.698;3.942;2022-09-09T06:15:57;6.90;;;3.35;;
9222;SDS011;7557;51.698;3.942;2022-09-09T06:18:26;5.45;;;2.70;;
9222;SDS011;7557;51.698;3.942;2022-09-09T06:20:55;9.02;;;3.17;;
9222;SDS011;7557;51.698;3.942;2022-09-09T06:23:23;5.40;;;2.92;;
9222;SDS011;7557;51.698;3.942;2022-09-09T06:25:51;5.03;;;2.70;;
9222;SDS011;7557;51.698;3.942;2022-09-09T06:28:18;9.57;;;3.70;;
9222;SDS011;7557;51.698;3.942;2022-09-09T06:30:46;6.88;;;2.90;;
9222;SDS011;7557;51.698;3.942;2022-09-09T06:33:13;5.10;;;2.88;;
9222;SDS011;7557;51.698;3.942;2022-09-09T06:35:42;6.07;;;3.00;;
9222;SDS011;7557;51.698;3.942;2022-09-09T06:38:18;4.82;;;2.75;;
9222;SDS011;7557;51.698;3.942;2022-09-09T06:40:50;7.03;;;3.13;;
9222;SDS011;7557;51.698;3.942;2022-09-09T06:43:19;4.85;;;2.40;;
9222;SDS011;7557;51.698;3.942;2022-09-09T06:45:52;4.65;;;2.97;;
9222;SDS011;7557;51.698;3.942;2022-09-09T06:48:21;6.22;;;2.72;;
9222;SDS011;7557;51.698;3.942;2022-09-09T06:50:50;4.63;;;2.42;;
9222;SDS011;7557;51.698;3.942;2022-09-09T06:53:17;8.30;;;2.75;;
9222;SDS011;7557;51.698;3.942;2022-09-09T06:55:45;9.57;;;3.50;;
9222;SDS011;7557;51.698;3.942;2022-09-09T06:58:13;7.93;;;3.03;;
9222;SDS011;7557;51.698;3.942;2022-09-09T07:00:40;6.43;;;2.65;;
9222;SDS011;7557;51.698;3.942;2022-09-09T07:03:08;7.15;;;2.88;;
9222;SDS011;7557;51.698;3.942;2022-09-09T07:05:36;9.07;;;3.22;;
9222;SDS011;7557;51.698;3.942;2022-09-09T07:08:05;6.35;;;2.78;;
9222;SDS011;7557;51.698;3.942;2022-09-09T07:10:33;6.47;;;2.70;;
9222;SDS011;7557;51.698;3.942;2022-09-09T07:13:01;5.70;;;2.90;;
9222;SDS011;7557;51.698;3.942;2022-09-09T07:15:29;5.38;;;2.83;;
9222;SDS011;7557;51.698;3.942;2022-09-09T07:18:00;6.95;;;2.75;;
9222;SDS011;7557;51.698;3.942;2022-09-09T07:20:28;5.82;;;2.70;;
9222;SDS011;7557;51.698;3.942;2022-09-09T07:22:56;5.35;;;2.35;;
9222;SDS011;7557;51.698;3.942;2022-09-09T07:25:25;6.68;;;2.78;;
9222;SDS011;7557;51.698;3.942;2022-09-09T07:27:54;5.95;;;2.85;;
9222;SDS011;7557;51.698;3.942;2022-09-09T07:30:22;5.47;;;2.58;;
9222;SDS011;7557;51.698;3.942;2022-09-09T07:32:50;4.93;;;2.08;;
9222;SDS011;7557;51.698;3.942;2022-09-09T07:35:18;5.00;;;2.33;;
9222;SDS011;7557;51.698;3.942;2022-09-09T07:37:46;5.60;;;2.72;;
9222;SDS011;7557;51.698;3.942;2022-09-09T07:40:13;5.65;;;2.53;;
9222;SDS011;7557;51.698;3.942;2022-09-09T07:42:42;4.03;;;2.70;;
9222;SDS011;7557;51.698;3.942;2022-09-09T07:45:10;10.45;;;2.50;;
9222;SDS011;7557;51.698;3.942;2022-09-09T07:47:37;5.65;;;2.92;;
9222;SDS011;7557;51.698;3.942;2022-09-09T07:50:06;3.85;;;2.50;;
9222;SDS011;7557;51.698;3.942;2022-09-09T07:52:34;6.72;;;2.88;;
9222;SDS011;7557;51.698;3.942;2022-09-09T07:55:02;8.70;;;2.97;;
9222;SDS011;7557;51.698;3.942;2022-09-09T07:57:31;6.65;;;2.30;;
9222;SDS011;7557;51.698;3.942;2022-09-09T08:00:00;4.47;;;3.05;;
9222;SDS011;7557;51.698;3.942;2022-09-09T08:02:28;4.25;;;2.40;;
9222;SDS011;7557;51.698;3.942;2022-09-09T08:04:55;10.88;;;2.97;;
9222;SDS011;7557;51.698;3.942;2022-09-09T08:07:23;6.65;;;2.45;;
9222;SDS011;7557;51.698;3.942;2022-09-09T08:09:50;5.47;;;2.63;;
9222;SDS011;7557;51.698;3.942;2022-09-09T08:12:18;4.00;;;2.33;;
9222;SDS011;7557;51.698;3.942;2022-09-09T08:14:45;2.95;;;2.17;;
9222;SDS011;7557;51.698;3.942;2022-09-09T08:17:15;5.10;;;2.30;;
9222;SDS011;7557;51.698;3.942;2022-09-09T08:19:42;3.72;;;2.17;;
9222;SDS011;7557;51.698;3.942;2022-09-09T08:22:10;7.13;;;2.50;;
9222;SDS011;7557;51.698;3.942;2022-09-09T08:24:37;4.90;;;2.00;;
9222;SDS011;7557;51.698;3.942;2022-09-09T08:27:06;3.15;;;2.30;;
9222;SDS011;7557;51.698;3.942;2022-09-09T08:29:35;4.80;;;2.08;;
9222;SDS011;7557;51.698;3.942;2022-09-09T08:32:03;7.70;;;2.30;;
9222;SDS011;7557;51.698;3.942;2022-09-09T08:34:32;6.57;;;2.58;;
9222;SDS011;7557;51.698;3.942;2022-09-09T08:36:59;5.45;;;2.20;;
9222;SDS011;7557;51.698;3.942;2022-09-09T08:39:26;6.30;;;2.50;;
9222;SDS011;7557;51.698;3.942;2022-09-09T08:41:57;2.97;;;1.83;;
9222;SDS011;7557;51.698;3.942;2022-09-09T08:44:47;7.45;;;2.90;;
9222;SDS011;7557;51.698;3.942;2022-09-09T08:47:39;5.65;;;1.67;;
9222;SDS011;7557;51.698;3.942;2022-09-09T08:50:18;4.18;;;2.10;;
9222;SDS011;7557;51.698;3.942;2022-09-09T08:52:51;2.25;;;1.80;;
9222;SDS011;7557;51.698;3.942;2022-09-09T08:55:24;4.43;;;2.33;;
9222;SDS011;7557;51.698;3.942;2022-09-09T08:57:58;4.88;;;1.95;;
9222;SDS011;7557;51.698;3.942;2022-09-09T09:00:34;4.05;;;2.33;;
9222;SDS011;7557;51.698;3.942;2022-09-09T09:03:11;4.85;;;1.80;;
9222;SDS011;7557;51.698;3.942;2022-09-09T09:05:48;6.82;;;2.50;;
9222;SDS011;7557;51.698;3.942;2022-09-09T09:08:26;2.53;;;2.17;;
9222;SDS011;7557;51.698;3.942;2022-09-09T09:10:58;3.20;;;1.92;;
9222;SDS011;7557;51.698;3.942;2022-09-09T09:13:29;4.15;;;2.10;;
9222;SDS011;7557;51.698;3.942;2022-09-09T09:16:02;2.53;;;2.00;;
9222;SDS011;7557;51.698;3.942;2022-09-09T09:18:39;3.33;;;2.13;;
9222;SDS011;7557;51.698;3.942;2022-09-09T09:21:10;5.68;;;2.72;;
9222;SDS011;7557;51.698;3.942;2022-09-09T09:23:42;3.53;;;2.40;;
9222;SDS011;7557;51.698;3.942;2022-09-09T09:26:15;5.53;;;2.40;;
9222;SDS011;7557;51.698;3.942;2022-09-09T09:28:44;4.80;;;2.00;;
9222;SDS011;7557;51.698;3.942;2022-09-09T09:31:12;3.70;;;3.42;;
9222;SDS011;7557;51.698;3.942;2022-09-09T09:33:43;4.15;;;2.40;;
9222;SDS011;7557;51.698;3.942;2022-09-09T09:36:16;2.50;;;2.15;;
9222;SDS011;7557;51.698;3.942;2022-09-09T09:38:54;4.38;;;2.38;;
9222;SDS011;7557;51.698;3.942;2022-09-09T09:41:29;5.40;;;2.53;;
9222;SDS011;7557;51.698;3.942;2022-09-09T09:43:59;6.05;;;2.38;;
9222;SDS011;7557;51.698;3.942;2022-09-09T09:46:27;3.65;;;2.28;;
9222;SDS011;7557;51.698;3.942;2022-09-09T09:48:58;6.45;;;2.53;;
9222;SDS011;7557;51.698;3.942;2022-09-09T09:51:28;5.55;;;2.95;;
9222;SDS011;7557;51.698;3.942;2022-09-09T09:54:08;6.53;;;2.85;;
9222;SDS011;7557;51.698;3.942;2022-09-09T09:56:42;2.92;;;2.30;;
9222;SDS011;7557;51.698;3.942;2022-09-09T09:59:19;4.05;;;2.70;;
9222;SDS011;7557;51.698;3.942;2022-09-09T10:01:48;5.57;;;2.80;;
9222;SDS011;7557;51.698;3.942;2022-09-09T10:04:17;5.70;;;2.63;;
9222;SDS011;7557;51.698;3.942;2022-09-09T10:06:50;5.47;;;2.53;;
9222;SDS011;7557;51.698;3.942;2022-09-09T10:09:21;4.47;;;2.92;;
9222;SDS011;7557;51.698;3.942;2022-09-09T10:11:52;3.67;;;3.20;;
9222;SDS011;7557;51.698;3.942;2022-09-09T10:14:28;3.97;;;2.88;;
9222;SDS011;7557;51.698;3.942;2022-09-09T10:17:06;3.53;;;2.70;;
9222;SDS011;7557;51.698;3.942;2022-09-09T10:19:40;5.65;;;2.15;;
9222;SDS011;7557;51.698;3.942;2022-09-09T10:22:27;8.05;;;2.60;;
9222;SDS011;7557;51.698;3.942;2022-09-09T10:25:07;3.55;;;2.85;;
9222;SDS011;7557;51.698;3.942;2022-09-09T10:28:06;4.97;;;2.58;;
9222;SDS011;7557;51.698;3.942;2022-09-09T10:30:51;2.70;;;2.20;;
9222;SDS011;7557;51.698;3.942;2022-09-09T10:33:36;3.45;;;2.58;;
9222;SDS011;7557;51.698;3.942;2022-09-09T10:36:17;2.33;;;2.08;;
9222;SDS011;7557;51.698;3.942;2022-09-09T10:38:50;3.88;;;3.13;;
9222;SDS011;7557;51.698;3.942;2022-09-09T10:41:26;4.50;;;2.53;;
9222;SDS011;7557;51.698;3.942;2022-09-09T10:44:12;4.43;;;3.05;;
9222;SDS011;7557;51.698;3.942;2022-09-09T10:46:53;9.25;;;3.15;;
9222;SDS011;7557;51.698;3.942;2022-09-09T10:49:42;7.72;;;3.55;;
9222;SDS011;7557;51.698;3.942;2022-09-09T10:52:26;8.27;;;3.58;;
9222;SDS011;7557;51.698;3.942;2022-09-09T10:55:02;3.72;;;3.35;;
9222;SDS011;7557;51.698;3.942;2022-09-09T10:57:37;5.63;;;3.30;;
9222;SDS011;7557;51.698;3.942;2022-09-09T11:00:13;5.32;;;4.13;;
9222;SDS011;7557;51.698;3.942;2022-09-09T11:02:44;5.00;;;3.83;;
9222;SDS011;7557;51.698;3.942;2022-09-09T11:05:16;7.90;;;4.75;;
9222;SDS011;7557;51.698;3.942;2022-09-09T11:07:47;6.47;;;4.63;;
9222;SDS011;7557;51.698;3.942;2022-09-09T11:10:21;5.93;;;4.30;;
9222;SDS011;7557;51.698;3.942;2022-09-09T11:12:53;6.40;;;4.22;;
9222;SDS011;7557;51.698;3.942;2022-09-09T11:15:28;7.15;;;4.18;;
9222;SDS011;7557;51.698;3.942;2022-09-09T11:18:01;3.95;;;3.55;;
9222;SDS011;7557;51.698;3.942;2022-09-09T11:20:33;4.65;;;3.88;;
9222;SDS011;7557;51.698;3.942;2022-09-09T11:23:01;5.00;;;3.85;;
9222;SDS011;7557;51.698;3.942;2022-09-09T11:25:34;4.25;;;3.85;;
9222;SDS011;7557;51.698;3.942;2022-09-09T11:28:15;4.30;;;3.90;;
9222;SDS011;7557;51.698;3.942;2022-09-09T11:31:06;5.43;;;3.90;;
9222;SDS011;7557;51.698;3.942;2022-09-09T11:36:59;5.45;;;4.50;;
9222;SDS011;7557;51.698;3.942;2022-09-09T11:39:54;5.28;;;3.80;;
9222;SDS011;7557;51.698;3.942;2022-09-09T11:42:42;5.78;;;3.22;;
9222;SDS011;7557;51.698;3.942;2022-09-09T11:45:11;6.00;;;3.30;;
9222;SDS011;7557;51.698;3.942;2022-09-09T11:47:51;4.00;;;3.55;;
9222;SDS011;7557;51.698;3.942;2022-09-09T11:50:30;10.95;;;4.00;;
9222;SDS011;7557;51.698;3.942;2022-09-09T11:53:03;9.52;;;3.75;;
9222;SDS011;7557;51.698;3.942;2022-09-09T11:56:06;3.22;;;2.40;;
9222;SDS011;7557;51.698;3.942;2022-09-09T11:58:38;4.05;;;2.67;;
9222;SDS011;7557;51.698;3.942;2022-09-09T12:07:03;2.85;;;2.00;;
9222;SDS011;7557;51.698;3.942;2022-09-09T12:09:48;3.97;;;2.15;;
9222;SDS011;7557;51.698;3.942;2022-09-09T12:12:23;2.20;;;2.00;;
9222;SDS011;7557;51.698;3.942;2022-09-09T12:18:00;3.25;;;2.17;;
9222;SDS011;7557;51.698;3.942;2022-09-09T12:20:31;2.65;;;2.13;;
9222;SDS011;7557;51.698;3.942;2022-09-09T12:26:01;4.70;;;2.30;;
9222;SDS011;7557;51.698;3.942;2022-09-09T12:28:44;4.88;;;2.25;;
9222;SDS011;7557;51.698;3.942;2022-09-09T12:31:20;4.32;;;2.70;;
9222;SDS011;7557;51.698;3.942;2022-09-09T12:33:52;4.88;;;2.65;;
9222;SDS011;7557;51.698;3.942;2022-09-09T12:36:20;6.25;;;2.80;;
9222;SDS011;7557;51.698;3.942;2022-09-09T12:38:51;4.85;;;2.33;;
9222;SDS011;7557;51.698;3.942;2022-09-09T12:41:20;5.95;;;2.30;;
9222;SDS011;7557;51.698;3.942;2022-09-09T12:43:49;2.30;;;2.00;;
9222;SDS011;7557;51.698;3.942;2022-09-09T12:46:29;2.53;;;2.33;;
9222;SDS011;7557;51.698;3.942;2022-09-09T12:49:04;2.83;;;1.92;;
9222;SDS011;7557;51.698;3.942;2022-09-09T12:51:32;5.28;;;2.30;;
9222;SDS011;7557;51.698;3.942;2022-09-09T12:54:00;5.95;;;1.90;;
9222;SDS011;7557;51.698;3.942;2022-09-09T12:56:28;3.00;;;1.60;;
9222;SDS011;7557;51.698;3.942;2022-09-09T12:58:57;6.72;;;1.75;;
9222;SDS011;7557;51.698;3.942;2022-09-09T13:01:27;4.05;;;2.10;;
9222;SDS011;7557;51.698;3.942;2022-09-09T13:03:56;5.32;;;1.85;;
9222;SDS011;7557;51.698;3.942;2022-09-09T13:06:25;6.97;;;2.55;;
9222;SDS011;7557;51.698;3.942;2022-09-09T13:08:54;12.98;;;3.58;;
9222;SDS011;7557;51.698;3.942;2022-09-09T13:11:24;2.80;;;2.08;;
9222;SDS011;7557;51.698;3.942;2022-09-09T13:13:56;6.47;;;2.22;;
9222;SDS011;7557;51.698;3.942;2022-09-09T13:16:25;6.95;;;2.88;;
9222;SDS011;7557;51.698;3.942;2022-09-09T13:18:57;10.13;;;2.92;;
9222;SDS011;7557;51.698;3.942;2022-09-09T13:21:35;9.50;;;2.47;;
9222;SDS011;7557;51.698;3.942;2022-09-09T13:24:04;8.23;;;2.00;;
9222;SDS011;7557;51.698;3.942;2022-09-09T13:26:35;8.05;;;1.88;;
9222;SDS011;7557;51.698;3.942;2022-09-09T13:29:15;3.22;;;1.50;;
9222;SDS011;7557;51.698;3.942;2022-09-09T13:31:46;6.03;;;1.98;;
9222;SDS011;7557;51.698;3.942;2022-09-09T13:34:25;5.97;;;1.95;;
9222;SDS011;7557;51.698;3.942;2022-09-09T13:36:56;5.28;;;1.83;;
9222;SDS011;7557;51.698;3.942;2022-09-09T13:39:27;7.03;;;2.30;;
9222;SDS011;7557;51.698;3.942;2022-09-09T13:41:55;4.13;;;1.85;;
9222;SDS011;7557;51.698;3.942;2022-09-09T13:44:24;3.72;;;1.67;;
9222;SDS011;7557;51.698;3.942;2022-09-09T13:47:00;3.35;;;1.83;;
9222;SDS011;7557;51.698;3.942;2022-09-09T13:49:29;7.90;;;2.08;;
9222;SDS011;7557;51.698;3.942;2022-09-09T13:52:09;4.68;;;1.80;;
9222;SDS011;7557;51.698;3.942;2022-09-09T13:54:38;3.28;;;1.63;;
9222;SDS011;7557;51.698;3.942;2022-09-09T13:57:11;3.55;;;2.28;;
9222;SDS011;7557;51.698;3.942;2022-09-09T13:59:43;5.45;;;2.25;;
9222;SDS011;7557;51.698;3.942;2022-09-09T14:02:10;6.22;;;3.00;;
9222;SDS011;7557;51.698;3.942;2022-09-09T14:04:38;4.97;;;2.67;;
9222;SDS011;7557;51.698;3.942;2022-09-09T14:07:09;7.50;;;2.50;;
9222;SDS011;7557;51.698;3.942;2022-09-09T14:09:38;3.58;;;2.63;;
9222;SDS011;7557;51.698;3.942;2022-09-09T14:12:08;4.80;;;2.58;;
9222;SDS011;7557;51.698;3.942;2022-09-09T14:14:36;3.80;;;2.60;;
9222;SDS011;7557;51.698;3.942;2022-09-09T14:17:03;4.30;;;3.20;;
9222;SDS011;7557;51.698;3.942;2022-09-09T14:19:31;5.03;;;3.90;;
9222;SDS011;7557;51.698;3.942;2022-09-09T14:21:59;5.25;;;3.90;;
9222;SDS011;7557;51.698;3.942;2022-09-09T14:24:28;7.13;;;4.68;;
9222;SDS011;7557;51.698;3.942;2022-09-09T14:26:56;6.57;;;4.53;;
9222;SDS011;7557;51.698;3.942;2022-09-09T14:29:23;4.63;;;4.22;;
9222;SDS011;7557;51.698;3.942;2022-09-09T14:31:51;10.63;;;5.95;;
9222;SDS011;7557;51.698;3.942;2022-09-09T14:34:19;8.07;;;5.65;;
9222;SDS011;7557;51.698;3.942;2022-09-09T14:36:46;6.13;;;5.38;;
9222;SDS011;7557;51.698;3.942;2022-09-09T14:39:13;11.75;;;6.88;;
9222;SDS011;7557;51.698;3.942;2022-09-09T14:41:42;11.02;;;6.28;;
9222;SDS011;7557;51.698;3.942;2022-09-09T14:44:10;8.60;;;7.55;;
9222;SDS011;7557;51.698;3.942;2022-09-09T14:46:38;8.15;;;7.45;;
9222;SDS011;7557;51.698;3.942;2022-09-09T14:49:07;6.80;;;5.90;;
9222;SDS011;7557;51.698;3.942;2022-09-09T14:51:35;4.88;;;3.72;;
9222;SDS011;7557;51.698;3.942;2022-09-09T14:54:03;4.05;;;3.05;;
9222;SDS011;7557;51.698;3.942;2022-09-09T14:56:31;3.28;;;3.10;;
9222;SDS011;7557;51.698;3.942;2022-09-09T14:59:02;7.18;;;3.45;;
9222;SDS011;7557;51.698;3.942;2022-09-09T15:01:30;5.85;;;3.83;;
9222;SDS011;7557;51.698;3.942;2022-09-09T15:03:59;4.82;;;4.28;;
9222;SDS011;7557;51.698;3.942;2022-09-09T15:06:29;7.47;;;3.78;;
9222;SDS011;7557;51.698;3.942;2022-09-09T15:08:58;5.47;;;3.70;;
9222;SDS011;7557;51.698;3.942;2022-09-09T15:11:27;10.27;;;3.72;;
9222;SDS011;7557;51.698;3.942;2022-09-09T15:13:57;5.57;;;3.75;;
9222;SDS011;7557;51.698;3.942;2022-09-09T15:16:27;6.65;;;2.72;;
9222;SDS011;7557;51.698;3.942;2022-09-09T15:18:55;2.72;;;2.40;;
9222;SDS011;7557;51.698;3.942;2022-09-09T15:21:24;6.82;;;2.47;;
9222;SDS011;7557;51.698;3.942;2022-09-09T15:23:52;7.63;;;2.90;;
9222;SDS011;7557;51.698;3.942;2022-09-09T15:26:20;5.70;;;3.53;;
9222;SDS011;7557;51.698;3.942;2022-09-09T15:28:48;4.65;;;2.90;;
9222;SDS011;7557;51.698;3.942;2022-09-09T15:31:17;5.28;;;2.67;;
9222;SDS011;7557;51.698;3.942;2022-09-09T15:33:50;2.70;;;2.50;;
9222;SDS011;7557;51.698;3.942;2022-09-09T15:36:19;4.38;;;2.47;;
9222;SDS011;7557;51.698;3.942;2022-09-09T15:38:48;2.85;;;2.60;;
9222;SDS011;7557;51.698;3.942;2022-09-09T15:41:15;4.38;;;2.65;;
9222;SDS011;7557;51.698;3.942;2022-09-09T15:43:43;3.13;;;2.80;;
9222;SDS011;7557;51.698;3.942;2022-09-09T15:46:22;4.25;;;2.40;;
9222;SDS011;7557;51.698;3.942;2022-09-09T15:48:54;4.10;;;2.47;;
9222;SDS011;7557;51.698;3.942;2022-09-09T15:51:22;2.53;;;2.30;;
9222;SDS011;7557;51.698;3.942;2022-09-09T15:53:53;2.40;;;2.30;;
9222;SDS011;7557;51.698;3.942;2022-09-09T15:56:22;2.75;;;2.53;;
9222;SDS011;7557;51.698;3.942;2022-09-09T15:58:49;2.50;;;2.25;;
9222;SDS011;7557;51.698;3.942;2022-09-09T16:01:17;2.47;;;2.05;;